Spotswood, New Jersey
Current Conditions -  °F | °C
As of 1:35 PM on Friday 19 Dec 2014 (Local Time) from KLDJ Reporting Station
Overcast Overcast  
Wind Chill: 35°   Ceiling: 3900
Heat Index: 42°   Visibility: 10mi
Dew Point: 25°   Wind: 12mph
Humidity: 51%   Direction: 320°NW
Pressure: 30.07"   Gusts: NA
Location:  40.4°N, 74.39°W
Report Text: KLDJ 191835Z AUTO 32010KT 10SM OVC039 06/M04 A3007 RMK AO2 T00551040
Loading
Personal Weather Stations






























Interactive Weather Map New forecast layout! Learn more

10-Day Weather Forecast

Advertisements
Track Severe Weather on mobile